Flight Track Log - Related Links

Times and Time Zones

All times are in EDT time to prevent confusion due to time zone crossing. See the N1926A flight status page for this flight to view local times or setup timezone preferences in your user account.

Time Position Orientation Groundspeed Altitude Reporting Facility
EDT Latitude Longitude Course Direction KTS MPH feet Rate Location/Type
Sat 09:36:33 AM 32.6097 -85.8758 343° North 185 213 4,800  Level Atlanta Center
Sat 09:37:33 AM 32.6594 -85.8942 343° North 178 205 6,700 1,050 Climbing Atlanta Center
Sat 09:38:33 AM 32.7133 -85.9175 340° North 217 250 6,900 150 Climbing Atlanta Center
Sat 09:39:33 AM 32.7692 -85.9458 337° Northwest 248 285 7,000  Climbing Atlanta Center
Sat 09:40:33 AM 32.8294 -85.9744 338° Northwest 247 284 6,900 350 Descending Atlanta Center
Sat 09:41:33 AM 32.8894 -85.9981 342° North 236 272 7,700 1,100 Climbing Atlanta Center
Sat 09:42:33 AM 32.9414 -86.0189 341° North 225 259 9,100 1,450 Climbing Atlanta Center
Sat 09:43:33 AM 33.0017 -86.0353 347° North 213 245 10,600 1,400 Climbing Atlanta Center
Sat 09:44:33 AM 33.0556 -86.0489 348° North 207 238 11,900 700 Climbing Atlanta Center
Sat 09:45:33 AM 33.1158 -86.0750 340° North 216 249 12,000 50 Climbing Atlanta Center
Sat 09:46:33 AM 33.1781 -86.1014 340° North 229 264 12,000  Level Atlanta Center
Sat 09:47:33 AM 33.2400 -86.1300 339° North 234 269 12,000  Level Atlanta Center
Sat 09:48:33 AM 33.3022 -86.1614 337° Northwest 234 269 12,000  Level Atlanta Center
Sat 09:49:33 AM 33.3642 -86.1903 339° North 234 269 12,000  Level Atlanta Center
Sat 09:50:33 AM 33.4264 -86.2242 336° Northwest 234 269 12,000  Level Atlanta Center
Sat 09:51:33 AM 33.4864 -86.2481 342° North 234 269 12,000  Level Atlanta Center
Sat 09:52:33 AM 33.5506 -86.2797 338° Northwest 234 269 12,000  Level Atlanta Center
Sat 09:53:33 AM 33.6208 -86.3114 339° North 234 269 12,000  Level Atlanta Center
Sat 09:54:33 AM 33.6831 -86.3381 340° North 234 269 12,000  Level Atlanta Center
Sat 09:55:33 AM 33.7450 -86.3672 339° North 234 269 12,000  Level Atlanta Center
Sat 09:56:33 AM 33.8114 -86.3939 342° North 239 275 12,000  Level Atlanta Center
Sat 09:57:33 AM 33.8733 -86.4256 337° Northwest 239 275 12,000 -265 Level Atlanta Center
Sat 09:59:34 AM 34.0058 -86.4861 339° North 254 292 11,200 -331 Descending Memphis Center
Sat 10:00:34 AM 34.0672 -86.5133 340° North 249 287 11,000 -100 Descending Memphis Center
Sat 10:01:34 AM 34.1286 -86.5406 340° North 238 274 11,000  Level Memphis Center
Sat 10:02:34 AM 34.1858 -86.5683 338° Northwest 232 267 11,000 -500 Level Memphis Center
Sat 10:03:34 AM 34.2450 -86.5983 337° Northwest 227 261 10,000 -1,250 Descending Memphis Center
Sat 10:04:34 AM 34.3108 -86.6306 338° Northwest 240 276 8,500 -1,500 Descending Memphis Center
Sat 10:05:34 AM 34.3744 -86.6631 337° Northwest 240 276 7,000 -1,500 Descending Memphis Center
Sat 10:06:34 AM 34.4378 -86.6931 339° North 240 276 5,500 -1,400 Descending Memphis Center
Sat 10:07:34 AM 34.4953 -86.7258 335° Northwest 234 269 4,200 -1,200 Descending Memphis Center
Sat 10:08:34 AM 34.5439 -86.7542 334° Northwest 216 249 3,100 -1,250 Descending Memphis Center
Sat 10:09:34 AM 34.5842 -86.7700 342° North 180 207 1,700 -1,150 Descending Memphis Center
Sat 10:10:34 AM 34.6194 -86.7686 North 142 163 800 -450 Descending Memphis Center
Sat 10:11:34 AM 34.6575 -86.7869 338° Northwest 142 163 800  Level Memphis Center

Login

Don't have an account? Register now (free) for customized features, flight alerts, and more!